Time;durP1;ratioP1;P1;durP2;ratioP2;P2;SDS_P1;SDS_P2;PMS_P1;PMS_P2;Temp;Humidity;BMP_temperature;BMP_pressure;BME280_temperature;BME280_humidity;BME280_pressure;Samples;Min_cycle;Max_cycle;Signal;HPM_P1;HPM_P2
2022/11/08 00:03:29;;;;;;;11.45;2.20;;;12.70;99.90;;;;;;5068900;28;20047;-89
2022/11/08 00:14:08;;;;;;;9.95;3.08;;;13.00;99.90;;;;;;5053787;28;20051;-89
2022/11/08 00:16:34;;;;;;;11.32;2.75;;;12.80;99.90;;;;;;5052526;28;20127;-88
2022/11/08 00:19:00;;;;;;;7.45;1.77;;;12.80;99.90;;;;;;5051781;28;20055;-90
2022/11/08 00:21:26;;;;;;;11.52;2.15;;;12.80;99.90;;;;;;5086802;28;20044;-89
2022/11/08 00:23:52;;;;;;;15.23;2.58;;;12.80;99.90;;;;;;5034759;28;20044;-89
2022/11/08 00:26:18;;;;;;;10.57;2.88;;;13.60;99.90;;;;;;5035453;28;20048;-90
2022/11/08 00:28:43;;;;;;;15.35;3.00;;;12.80;99.90;;;;;;5051170;28;20449;-89
2022/11/08 00:31:09;;;;;;;15.35;1.88;;;12.80;99.90;;;;;;5051516;28;20040;-90
2022/11/08 00:33:35;;;;;;;14.32;2.03;;;12.80;99.90;;;;;;5051957;28;20044;-90
2022/11/08 00:36:01;;;;;;;9.50;2.35;;;12.20;99.90;;;;;;5018192;28;20380;-90
2022/11/08 00:38:27;;;;;;;11.38;2.22;;;13.20;99.90;;;;;;5051829;28;20390;-89
2022/11/08 00:40:53;;;;;;;16.80;2.40;;;12.90;99.90;;;;;;5067872;28;20040;-91
2022/11/08 00:43:18;;;;;;;11.88;2.17;;;13.50;99.90;;;;;;5050862;28;20044;-89
2022/11/08 00:45:44;;;;;;;18.00;2.50;;;12.80;99.90;;;;;;5034574;28;20050;-89
2022/11/08 00:48:10;;;;;;;10.60;2.10;;;12.80;99.90;;;;;;5067296;28;20076;-89
2022/11/08 00:50:39;;;;;;;13.40;1.98;;;12.80;99.90;;;;;;5051263;28;20083;-90
2022/11/08 00:53:05;;;;;;;14.75;2.38;;;12.80;99.90;;;;;;5067503;28;20052;-89
2022/11/08 00:55:31;;;;;;;8.43;2.20;;;12.80;99.90;;;;;;5067835;28;20048;-88
2022/11/08 00:57:56;;;;;;;12.30;3.08;;;13.10;99.90;;;;;;5051060;28;20048;-90
2022/11/08 01:00:22;;;;;;;16.35;2.38;;;12.80;99.90;;;;;;5066844;28;20048;-90
2022/11/08 01:03:17;;;;;;;15.55;3.15;;;12.80;99.90;;;;;;5067503;28;20402;-90
2022/11/08 01:05:36;;;;;;;14.48;2.10;;;13.40;99.90;;;;;;5067314;28;20444;-89
2022/11/08 01:08:02;;;;;;;17.63;1.95;;;12.80;99.90;;;;;;5068193;28;20040;-90
2022/11/08 01:10:28;;;;;;;11.52;2.38;;;12.80;99.90;;;;;;5067118;28;20486;-89
2022/11/08 01:12:53;;;;;;;15.95;2.30;;;12.80;99.90;;;;;;5034042;28;20036;-89
2022/11/08 01:15:19;;;;;;;14.77;2.25;;;12.80;99.90;;;;;;5050489;28;20071;-90
2022/11/08 01:17:45;;;;;;;13.35;2.05;;;13.00;99.90;;;;;;5033755;28;20089;-90
2022/11/08 01:20:10;;;;;;;12.85;2.10;;;12.80;99.90;;;;;;5017744;28;20090;-90
2022/11/08 01:22:36;;;;;;;10.40;1.80;;;12.90;99.90;;;;;;5034025;28;20028;-90
2022/11/08 01:25:02;;;;;;;14.48;1.73;;;12.90;99.90;;;;;;5050960;28;20746;-91
2022/11/08 01:27:28;;;;;;;16.30;2.25;;;12.90;99.90;;;;;;5067522;28;20403;-89
2022/11/08 01:29:54;;;;;;;7.80;1.95;;;12.90;99.90;;;;;;5050221;28;20039;-90
2022/11/08 01:32:19;;;;;;;10.85;2.08;;;13.20;99.90;;;;;;5067297;28;20028;-90
2022/11/08 01:34:45;;;;;;;9.00;2.33;;;12.90;99.90;;;;;;5050787;28;20056;-89
2022/11/08 01:37:11;;;;;;;8.35;2.00;;;12.90;99.90;;;;;;5033622;28;20490;-89
2022/11/08 01:39:36;;;;;;;15.40;2.40;;;12.80;99.90;;;;;;5017716;28;20079;-89
2022/11/08 01:42:02;;;;;;;15.52;2.38;;;12.80;99.90;;;;;;5034062;28;20094;-91
2022/11/08 01:44:28;;;;;;;13.90;2.72;;;12.70;99.90;;;;;;5067246;28;20070;-89
2022/11/08 01:46:53;;;;;;;11.60;1.98;;;12.70;99.90;;;;;;5050654;28;20046;-90
2022/11/08 01:49:30;;;;;;;12.50;2.22;;;13.40;99.90;;;;;;5016866;28;20040;-90
2022/11/08 01:52:14;;;;;;;12.52;2.00;;;12.50;99.90;;;;;;5050348;28;20139;-90
2022/11/08 01:54:39;;;;;;;16.85;2.00;;;12.50;99.90;;;;;;5051028;28;20443;-91
2022/11/08 01:57:09;;;;;;;15.40;2.80;;;12.50;99.90;;;;;;5050348;28;20075;-89
2022/11/08 01:59:38;;;;;;;13.45;2.50;;;12.50;99.90;;;;;;5050410;28;20247;-89
2022/11/08 02:02:05;;;;;;;14.20;2.10;;;12.50;99.90;;;;;;5049956;28;20053;-90
2022/11/08 02:04:32;;;;;;;8.85;1.55;;;12.90;99.90;;;;;;5066965;28;20454;-90
2022/11/08 02:06:58;;;;;;;13.68;2.03;;;12.50;99.90;;;;;;5050647;28;20383;-91
2022/11/08 02:09:24;;;;;;;8.18;1.40;;;12.50;99.90;;;;;;5066639;28;20055;-89
2022/11/08 02:11:51;;;;;;;9.60;1.70;;;12.50;99.90;;;;;;5017229;28;20044;-90
2022/11/08 02:14:16;;;;;;;17.70;2.00;;;12.40;99.90;;;;;;5033366;28;20056;-91
2022/11/08 02:16:42;;;;;;;15.45;2.25;;;12.50;99.90;;;;;;5050514;28;20067;-90
2022/11/08 02:19:16;;;;;;;11.27;1.70;;;12.40;99.90;;;;;;5033643;28;20131;-88
2022/11/08 02:21:51;;;;;;;12.73;2.47;;;12.40;99.90;;;;;;5067115;28;20553;-88
2022/11/08 02:24:17;;;;;;;8.20;1.80;;;12.40;99.90;;;;;;5066477;28;20037;-88
2022/11/08 02:26:44;;;;;;;9.77;2.30;;;12.30;99.90;;;;;;5050334;28;20058;-89
2022/11/08 02:29:30;;;;;;;19.40;1.90;;;12.40;99.90;;;;;;5054140;28;20124;-90
2022/11/08 02:31:57;;;;;;;6.57;1.50;;;12.30;99.90;;;;;;5092454;28;20044;-90
2022/11/08 02:34:35;;;;;;;10.80;2.70;;;12.30;99.90;;;;;;5055695;28;20048;-88
2022/11/08 02:37:02;;;;;;;15.00;2.10;;;13.10;99.90;;;;;;5071276;28;20387;-89
2022/11/08 02:39:28;;;;;;;14.52;2.95;;;12.50;99.90;;;;;;5037053;28;20051;-88
2022/11/08 02:41:54;;;;;;;7.18;1.40;;;12.20;99.90;;;;;;5070763;28;20046;-88
2022/11/08 02:44:20;;;;;;;8.80;2.28;;;12.30;99.90;;;;;;5053420;28;20391;-88
2022/11/08 02:46:46;;;;;;;14.60;2.03;;;12.20;99.90;;;;;;5070712;28;20059;-88
2022/11/08 02:49:11;;;;;;;14.23;1.83;;;12.80;99.90;;;;;;5052940;28;20117;-89
2022/11/08 02:51:37;;;;;;;14.63;2.20;;;12.10;99.90;;;;;;5053106;28;20047;-88
2022/11/08 02:54:03;;;;;;;12.98;2.03;;;12.20;99.90;;;;;;5052966;28;20062;-88
2022/11/08 02:56:29;;;;;;;12.18;2.20;;;12.10;99.90;;;;;;5069346;28;20432;-89
2022/11/08 02:58:55;;;;;;;8.27;1.27;;;12.00;99.90;;;;;;5053556;28;20044;-87
2022/11/08 03:01:20;;;;;;;9.93;1.88;;;12.00;99.90;;;;;;5052566;28;20498;-89
2022/11/08 03:03:46;;;;;;;10.38;1.48;;;12.00;99.90;;;;;;5036242;28;20087;-88
2022/11/08 03:06:12;;;;;;;13.00;2.38;;;11.90;99.90;;;;;;5052602;28;20043;-93
2022/11/08 03:08:37;;;;;;;13.30;2.03;;;11.90;99.90;;;;;;5036992;28;20040;-90
2022/11/08 03:11:03;;;;;;;10.05;1.60;;;12.40;99.90;;;;;;5052669;28;20133;-88
2022/11/08 03:13:28;;;;;;;15.50;2.38;;;11.90;99.90;;;;;;5052692;28;20083;-90
2022/11/08 03:15:54;;;;;;;10.73;1.45;;;12.40;99.90;;;;;;5052672;28;20055;-88
2022/11/08 03:18:20;;;;;;;6.38;1.92;;;11.80;99.90;;;;;;5036922;28;20127;-91
2022/11/08 03:20:45;;;;;;;16.70;2.03;;;12.30;99.90;;;;;;5037485;28;20036;-88
2022/11/08 03:23:11;;;;;;;7.03;1.65;;;11.80;99.90;;;;;;5036727;28;20596;-88
2022/11/08 03:25:37;;;;;;;9.02;1.85;;;12.10;99.90;;;;;;5053007;28;20117;-87
2022/11/08 03:28:05;;;;;;;13.85;4.35;;;12.10;99.90;;;;;;5019292;28;20075;-89
2022/11/08 03:30:31;;;;;;;10.88;1.70;;;11.80;99.90;;;;;;5069805;28;20432;-88
2022/11/08 03:32:57;;;;;;;10.60;1.63;;;12.10;99.90;;;;;;5052728;28;20127;-89
2022/11/08 03:35:23;;;;;;;9.23;1.90;;;12.70;99.90;;;;;;5052581;28;20075;-89
2022/11/08 03:37:55;;;;;;;12.73;1.73;;;11.70;99.90;;;;;;5053047;28;20139;-89
2022/11/08 03:40:22;;;;;;;9.45;1.52;;;11.70;99.90;;;;;;5051707;28;20044;-89
2022/11/08 03:42:48;;;;;;;14.43;2.40;;;11.70;99.90;;;;;;5069567;28;20443;-88
2022/11/08 03:45:15;;;;;;;9.15;2.00;;;11.90;99.90;;;;;;5035152;28;20040;-89
2022/11/08 03:47:42;;;;;;;18.17;2.80;;;11.70;99.90;;;;;;5052736;28;20440;-88
2022/11/08 03:50:09;;;;;;;9.00;1.75;;;11.80;99.90;;;;;;5068982;28;20367;-89
2022/11/08 03:52:42;;;;;;;8.48;1.88;;;11.60;99.90;;;;;;5051969;28;20040;-88
2022/11/08 03:55:09;;;;;;;10.82;2.58;;;11.60;99.90;;;;;;5035870;28;20107;-87
2022/11/08 03:57:36;;;;;;;10.25;1.73;;;11.50;99.90;;;;;;5052010;28;20093;-89
2022/11/08 04:00:06;;;;;;;10.82;1.98;;;12.50;99.90;;;;;;5069629;28;20101;-89
2022/11/08 04:02:32;;;;;;;12.48;1.65;;;11.50;99.90;;;;;;5052332;28;20051;-89
2022/11/08 04:04:58;;;;;;;11.38;2.08;;;11.50;99.90;;;;;;5036008;28;20040;-90
2022/11/08 04:07:24;;;;;;;11.70;2.53;;;11.70;99.90;;;;;;5052215;28;20079;-89
2022/11/08 04:09:49;;;;;;;7.68;1.60;;;11.60;99.90;;;;;;5035353;28;20044;-89
2022/11/08 04:15:14;;;;;;;8.05;3.28;;;11.40;99.90;;;;;;5040171;28;20399;-91
2022/11/08 04:23:15;;;;;;;6.07;1.70;;;11.40;99.90;;;;;;5070896;28;20130;-87
2022/11/08 04:25:41;;;;;;;11.60;1.90;;;11.30;99.90;;;;;;5068060;28;20515;-87
2022/11/08 04:28:07;;;;;;;9.88;2.30;;;11.30;99.90;;;;;;5051516;28;20047;-87
2022/11/08 04:30:32;;;;;;;10.07;1.70;;;11.40;99.90;;;;;;5051642;28;20603;-89
2022/11/08 04:33:00;;;;;;;7.57;1.70;;;12.00;99.90;;;;;;5051271;28;20040;-88
2022/11/08 04:35:26;;;;;;;8.27;2.05;;;11.30;99.90;;;;;;5068607;28;20055;-88
2022/11/08 04:37:56;;;;;;;11.60;1.45;;;11.20;99.90;;;;;;5052080;28;20122;-90
2022/11/08 04:40:21;;;;;;;14.63;1.92;;;11.70;99.90;;;;;;5068494;28;20407;-87
2022/11/08 04:42:47;;;;;;;7.13;1.85;;;11.50;99.90;;;;;;5068671;28;20044;-88
2022/11/08 04:45:12;;;;;;;8.50;1.88;;;11.30;99.90;;;;;;5018343;28;20048;-89
2022/11/08 04:47:38;;;;;;;9.65;1.70;;;11.30;99.90;;;;;;5052508;28;20299;-89
2022/11/08 04:50:05;;;;;;;8.70;1.73;;;11.20;99.90;;;;;;5068512;28;20407;-88
2022/11/08 04:52:30;;;;;;;7.55;1.70;;;11.20;99.90;;;;;;5034282;28;20094;-87
2022/11/08 04:54:56;;;;;;;10.20;2.08;;;11.20;99.90;;;;;;5035799;28;20048;-89
2022/11/08 04:57:21;;;;;;;10.55;1.70;;;11.20;99.90;;;;;;5035827;28;20047;-88
2022/11/08 04:59:47;;;;;;;13.02;2.60;;;12.10;99.90;;;;;;5052071;28;20110;-88
2022/11/08 05:02:13;;;;;;;10.07;1.55;;;11.20;99.90;;;;;;5035826;28;20112;-87
2022/11/08 05:04:38;;;;;;;6.47;2.20;;;12.00;99.90;;;;;;5052457;28;20376;-88
2022/11/08 05:07:04;;;;;;;8.35;1.58;;;11.20;99.90;;;;;;5051669;28;20059;-88
2022/11/08 05:09:30;;;;;;;9.93;1.80;;;11.30;99.90;;;;;;5068250;28;20077;-89
2022/11/08 05:11:55;;;;;;;7.70;3.00;;;11.40;99.90;;;;;;5019061;28;20044;-88
2022/11/08 05:14:22;;;;;;;12.77;2.22;;;11.30;99.90;;;;;;5051333;28;20151;-90
2022/11/08 05:16:48;;;;;;;8.30;1.45;;;11.30;99.90;;;;;;5052163;28;20093;-90
2022/11/08 05:23:22;;;;;;;16.20;1.95;;;11.20;99.90;;;;;;5068712;28;20403;-89
2022/11/08 05:24:43;;;;;;;5.63;1.80;;;11.20;99.90;;;;;;5054249;28;20054;-90
2022/11/08 05:27:09;;;;;;;7.30;1.48;;;11.20;99.90;;;;;;5035032;28;20126;-85
2022/11/08 05:29:35;;;;;;;5.68;1.95;;;11.20;99.90;;;;;;5051120;28;20089;-85
2022/11/08 05:32:00;;;;;;;10.65;1.98;;;11.10;99.90;;;;;;5067684;28;20055;-88
2022/11/08 05:34:26;;;;;;;11.45;1.73;;;11.10;99.90;;;;;;5050659;28;20398;-89
2022/11/08 05:36:51;;;;;;;5.22;1.50;;;11.10;99.90;;;;;;5066224;28;20510;-88
2022/11/08 05:39:17;;;;;;;5.55;1.65;;;11.60;99.90;;;;;;5050767;28;20052;-93
2022/11/08 05:41:43;;;;;;;10.43;1.60;;;11.10;99.90;;;;;;5033866;28;20448;-89
2022/11/08 05:44:08;;;;;;;4.85;1.23;;;11.10;99.90;;;;;;5036387;28;20048;-89
2022/11/08 05:46:34;;;;;;;5.75;1.42;;;11.80;99.90;;;;;;5055867;28;20063;-89
2022/11/08 05:49:00;;;;;;;12.10;1.90;;;11.10;99.90;;;;;;5037340;28;20575;-88
2022/11/08 05:51:26;;;;;;;9.45;1.38;;;11.40;99.90;;;;;;5035048;28;20083;-89
2022/11/08 05:53:51;;;;;;;12.60;2.03;;;11.50;99.90;;;;;;5050765;28;20088;-88
2022/11/08 05:56:17;;;;;;;8.60;1.63;;;11.60;99.90;;;;;;5066928;28;20040;-87
2022/11/08 05:58:44;;;;;;;9.60;2.30;;;11.10;99.90;;;;;;5066760;28;20044;-87
2022/11/08 06:01:13;;;;;;;9.73;1.75;;;11.50;99.90;;;;;;5066485;28;20070;-89
2022/11/08 06:03:38;;;;;;;9.13;1.65;;;11.00;99.90;;;;;;5068120;28;20036;-88
2022/11/08 06:06:10;;;;;;;11.20;1.52;;;11.90;99.90;;;;;;5070572;28;20110;-90
2022/11/08 06:08:37;;;;;;;3.33;1.35;;;11.00;99.90;;;;;;5071145;28;20456;-90
2022/11/08 06:11:08;;;;;;;5.55;1.60;;;10.90;99.90;;;;;;5053574;28;20044;-90
2022/11/08 06:13:34;;;;;;;7.43;1.80;;;10.90;99.90;;;;;;5071165;28;20443;-90
2022/11/08 06:16:08;;;;;;;8.05;1.38;;;10.90;99.90;;;;;;5070078;28;20085;-90
2022/11/08 06:18:34;;;;;;;5.13;1.42;;;10.90;99.90;;;;;;5069932;28;20056;-88
2022/11/08 06:21:02;;;;;;;7.03;1.80;;;10.90;99.90;;;;;;5070520;28;20096;-88
2022/11/08 06:23:28;;;;;;;4.25;0.95;;;10.90;99.90;;;;;;5053567;28;20123;-89
2022/11/08 06:25:54;;;;;;;7.03;1.45;;;11.10;99.90;;;;;;5070319;28;20072;-89
2022/11/08 06:28:19;;;;;;;3.47;1.13;;;11.00;99.90;;;;;;5053159;28;20048;-88
2022/11/08 06:30:45;;;;;;;5.00;1.35;;;10.90;99.90;;;;;;5053513;28;20040;-88
2022/11/08 06:33:11;;;;;;;8.02;1.50;;;10.90;99.90;;;;;;5053654;28;20113;-84
2022/11/08 06:35:37;;;;;;;5.28;1.17;;;10.90;99.90;;;;;;5087964;28;20072;-91
2022/11/08 06:38:03;;;;;;;7.13;1.63;;;11.60;99.90;;;;;;5036765;28;20036;-87
2022/11/08 06:40:31;;;;;;;7.32;1.55;;;11.50;99.90;;;;;;5069623;28;20077;-87
2022/11/08 06:42:57;;;;;;;7.60;1.20;;;10.90;99.90;;;;;;5053551;28;20044;-86
2022/11/08 06:45:24;;;;;;;6.63;1.50;;;10.90;99.90;;;;;;5069316;28;20052;-86
2022/11/08 06:47:59;;;;;;;9.27;2.42;;;12.00;99.90;;;;;;5069723;28;20079;-87
2022/11/08 06:50:27;;;;;;;8.90;1.60;;;10.90;99.90;;;;;;5069573;28;20528;-87
2022/11/08 06:53:01;;;;;;;7.93;1.65;;;11.60;99.90;;;;;;5069376;28;20188;-86
2022/11/08 06:55:27;;;;;;;8.98;1.50;;;11.00;99.90;;;;;;5069702;28;20044;-86
2022/11/08 06:57:54;;;;;;;10.82;1.73;;;11.00;99.90;;;;;;5069855;28;20142;-86
2022/11/08 07:00:20;;;;;;;7.45;1.15;;;11.00;99.90;;;;;;5069245;28;20046;-86
2022/11/08 07:02:59;;;;;;;6.28;1.48;;;11.00;99.90;;;;;;5053130;28;20040;-86
2022/11/08 07:05:27;;;;;;;10.68;1.80;;;11.10;99.90;;;;;;5069422;28;20514;-87
2022/11/08 07:07:53;;;;;;;9.55;1.35;;;11.10;99.90;;;;;;5069410;28;20051;-86
2022/11/08 07:10:20;;;;;;;7.32;1.92;;;11.50;99.90;;;;;;5052367;28;20051;-86
2022/11/08 07:12:47;;;;;;;12.90;2.45;;;11.20;99.90;;;;;;5052487;28;20059;-86
2022/11/08 07:15:14;;;;;;;11.10;2.95;;;11.30;99.90;;;;;;5051431;28;20463;-86
2022/11/08 07:17:39;;;;;;;7.72;0.95;;;11.20;99.90;;;;;;5068869;28;20050;-85
2022/11/08 07:20:07;;;;;;;5.90;1.40;;;11.60;99.90;;;;;;5086979;28;20569;-85
2022/11/08 07:22:33;;;;;;;8.88;1.50;;;11.30;99.90;;;;;;5052538;28;20463;-85
2022/11/08 07:24:58;;;;;;;8.93;1.52;;;11.30;99.90;;;;;;5069286;28;20071;-84
2022/11/08 07:27:24;;;;;;;7.75;1.30;;;11.30;99.90;;;;;;5068923;28;20047;-85
2022/11/08 07:29:50;;;;;;;9.45;1.95;;;11.70;99.90;;;;;;5052196;28;20040;-85
2022/11/08 07:32:15;;;;;;;7.00;1.98;;;11.40;99.90;;;;;;5087077;28;20051;-85
2022/11/08 07:34:41;;;;;;;10.88;2.35;;;11.60;99.90;;;;;;5068635;28;20036;-85
2022/11/08 07:37:06;;;;;;;6.63;1.80;;;11.50;99.90;;;;;;5068532;28;20040;-85
2022/11/08 07:39:32;;;;;;;6.40;1.90;;;11.50;99.90;;;;;;5087002;28;20150;-85
2022/11/08 07:41:58;;;;;;;7.53;1.70;;;11.60;99.90;;;;;;5068827;28;20141;-86
2022/11/08 07:44:23;;;;;;;10.77;1.58;;;12.00;99.90;;;;;;5068701;28;20141;-85
2022/11/08 07:46:49;;;;;;;8.80;1.58;;;11.60;99.90;;;;;;5068465;28;20093;-85
2022/11/08 07:49:14;;;;;;;7.82;1.42;;;11.90;99.90;;;;;;5068607;28;20043;-85
2022/11/08 07:51:40;;;;;;;9.60;1.75;;;11.60;99.90;;;;;;5051402;28;20079;-85
2022/11/08 07:54:06;;;;;;;7.78;1.38;;;11.70;99.90;;;;;;5051811;28;20076;-85
2022/11/08 07:56:31;;;;;;;7.50;1.52;;;11.70;99.90;;;;;;5052343;28;20043;-85
2022/11/08 07:58:57;;;;;;;5.35;1.65;;;11.70;99.90;;;;;;5051843;28;20554;-85
2022/11/08 08:01:23;;;;;;;6.72;2.35;;;12.00;99.90;;;;;;5086261;28;20372;-86
2022/11/08 08:03:48;;;;;;;4.97;1.48;;;11.80;99.90;;;;;;5068024;28;20052;-84
2022/11/08 08:06:14;;;;;;;5.30;1.15;;;12.10;99.90;;;;;;5068004;28;20075;-85
2022/11/08 08:08:40;;;;;;;12.07;2.25;;;12.00;99.90;;;;;;5068143;28;20086;-85
2022/11/08 08:11:05;;;;;;;2.63;1.02;;;12.00;99.90;;;;;;5086173;28;20040;-85
2022/11/08 08:13:31;;;;;;;6.78;1.15;;;12.70;99.90;;;;;;5050983;28;20558;-85
2022/11/08 08:16:01;;;;;;;3.38;0.82;;;12.10;99.90;;;;;;5067162;28;20055;-84
2022/11/08 08:18:28;;;;;;;6.05;1.20;;;12.20;99.90;;;;;;5085592;28;20506;-86
2022/11/08 08:20:54;;;;;;;4.70;1.15;;;12.20;99.90;;;;;;5067916;28;20110;-85
2022/11/08 08:23:20;;;;;;;4.80;1.30;;;12.30;99.90;;;;;;5085744;28;20563;-84
2022/11/08 08:25:45;;;;;;;5.53;0.98;;;12.30;99.90;;;;;;5086109;28;20032;-88
2022/11/08 08:28:11;;;;;;;6.55;1.38;;;12.40;99.90;;;;;;5049869;28;20044;-89
2022/11/08 08:30:37;;;;;;;5.00;1.05;;;12.70;99.90;;;;;;5050639;28;20039;-89
2022/11/08 08:33:08;;;;;;;2.00;0.70;;;12.40;99.90;;;;;;5033895;28;20036;-88
2022/11/08 08:35:35;;;;;;;5.22;1.13;;;12.40;99.90;;;;;;5050706;28;20040;-88
2022/11/08 08:38:01;;;;;;;5.25;1.17;;;12.40;99.90;;;;;;5051325;28;20051;-89
2022/11/08 08:40:27;;;;;;;3.55;0.75;;;12.50;99.90;;;;;;5050638;28;20043;-89
2022/11/08 08:42:53;;;;;;;6.13;1.20;;;12.50;99.90;;;;;;5050661;28;20171;-88
2022/11/08 08:45:18;;;;;;;4.93;1.08;;;12.50;99.90;;;;;;5050454;28;20074;-88
2022/11/08 08:47:49;;;;;;;6.88;1.58;;;12.60;99.90;;;;;;5050720;28;20257;-87
2022/11/08 08:50:15;;;;;;;7.22;1.50;;;12.70;99.90;;;;;;5051214;28;20047;-89
2022/11/08 08:52:40;;;;;;;7.25;1.10;;;12.70;99.90;;;;;;5067031;28;20046;-88
2022/11/08 08:55:06;;;;;;;6.25;0.93;;;12.80;99.90;;;;;;5017278;28;20082;-88
2022/11/08 08:57:32;;;;;;;5.63;1.52;;;12.80;99.90;;;;;;5067197;28;20044;-90
2022/11/08 08:59:58;;;;;;;8.13;1.00;;;12.80;99.90;;;;;;5050879;28;20040;-88
2022/11/08 09:02:24;;;;;;;16.05;0.90;;;12.80;99.90;;;;;;5068523;28;20047;-89
2022/11/08 09:04:49;;;;;;;6.28;1.08;;;12.80;99.90;;;;;;5038611;28;20048;-88
2022/11/08 09:07:15;;;;;;;5.07;1.10;;;12.90;99.90;;;;;;5072299;28;20075;-88
2022/11/08 09:09:41;;;;;;;6.10;1.20;;;12.90;99.90;;;;;;5070289;28;20040;-88
2022/11/08 09:12:07;;;;;;;8.77;1.30;;;13.00;99.90;;;;;;5050744;28;20459;-89
2022/11/08 09:14:32;;;;;;;12.43;1.55;;;13.00;99.90;;;;;;5034602;28;20047;-88
2022/11/08 09:16:58;;;;;;;9.23;1.35;;;13.10;99.90;;;;;;5050722;28;20059;-88
2022/11/08 09:19:25;;;;;;;8.85;1.70;;;13.50;99.90;;;;;;5050151;28;20054;-89
2022/11/08 09:21:51;;;;;;;7.30;1.70;;;13.30;99.90;;;;;;5067028;28;20098;-88
2022/11/08 09:24:17;;;;;;;5.45;1.10;;;13.30;99.90;;;;;;5049899;28;20080;-89
2022/11/08 09:26:42;;;;;;;2.83;1.25;;;13.30;99.90;;;;;;5050217;28;20145;-88
2022/11/08 09:29:08;;;;;;;6.65;1.13;;;13.30;99.90;;;;;;5049991;28;20036;-91
2022/11/08 09:31:34;;;;;;;19.70;1.90;;;13.30;99.90;;;;;;5066774;28;20052;-89
2022/11/08 09:33:59;;;;;;;13.80;1.40;;;13.40;99.90;;;;;;5050711;28;20044;-88
2022/11/08 09:36:25;;;;;;;10.60;1.33;;;13.40;99.90;;;;;;5033602;28;20055;-90
2022/11/08 09:38:51;;;;;;;6.05;1.17;;;13.40;99.90;;;;;;5036062;28;20102;-88
2022/11/08 09:41:16;;;;;;;5.75;1.00;;;13.40;99.90;;;;;;5053891;28;20044;-88
2022/11/08 09:44:20;;;;;;;4.55;1.00;;;13.50;99.90;;;;;;5054656;28;20038;-89
2022/11/08 09:46:51;;;;;;;4.60;1.13;;;13.60;99.90;;;;;;5054340;28;20048;-90
2022/11/08 09:49:25;;;;;;;7.05;1.10;;;13.60;99.90;;;;;;5070611;28;20592;-89
2022/11/08 09:51:51;;;;;;;10.88;1.70;;;13.70;99.90;;;;;;5053994;28;20047;-91
2022/11/08 09:54:26;;;;;;;2.97;0.93;;;14.10;99.90;;;;;;5054240;28;20040;-88
2022/11/08 09:56:54;;;;;;;4.97;1.73;;;13.80;99.90;;;;;;5070713;28;20054;-88
2022/11/08 09:59:26;;;;;;;6.63;1.00;;;13.80;99.90;;;;;;5070167;28;20050;-88
2022/11/08 10:01:52;;;;;;;6.37;0.93;;;13.90;99.90;;;;;;5070342;28;20491;-89
2022/11/08 10:04:21;;;;;;;3.60;1.10;;;14.20;99.90;;;;;;5037749;28;20044;-89
2022/11/08 10:06:49;;;;;;;5.88;1.13;;;14.00;99.90;;;;;;5070609;28;20483;-88
2022/11/08 10:10:02;;;;;;;5.55;1.23;;;14.00;99.90;;;;;;5070727;28;20445;-88
2022/11/08 10:13:05;;;;;;;4.63;0.98;;;14.10;99.90;;;;;;5054329;28;20039;-88
2022/11/08 10:15:46;;;;;;;4.28;1.13;;;14.10;99.90;;;;;;5070185;28;20766;-87
2022/11/08 10:18:17;;;;;;;4.68;1.15;;;14.10;99.90;;;;;;5053933;28;20044;-90
2022/11/08 10:21:09;;;;;;;13.82;2.50;;;14.10;99.90;;;;;;5053624;28;20044;-88
2022/11/08 10:23:43;;;;;;;3.33;1.07;;;14.30;99.90;;;;;;5054016;28;20076;-89
2022/11/08 10:26:16;;;;;;;7.88;1.55;;;14.10;99.90;;;;;;5052941;28;20051;-92
2022/11/08 10:29:00;;;;;;;4.45;1.23;;;14.10;99.90;;;;;;5053102;28;20043;-89
2022/11/08 10:31:29;;;;;;;4.57;1.10;;;14.10;99.90;;;;;;5053056;28;20494;-89
2022/11/08 10:33:57;;;;;;;13.68;0.98;;;14.10;99.90;;;;;;5053364;28;20040;-88
2022/11/08 10:36:32;;;;;;;11.43;2.53;;;14.10;99.90;;;;;;5036214;28;20135;-88
2022/11/08 10:39:07;;;;;;;6.10;1.50;;;14.10;99.90;;;;;;5053007;28;20052;-89
2022/11/08 10:41:46;;;;;;;4.68;1.52;;;14.20;99.90;;;;;;5069463;28;20091;-88
2022/11/08 10:44:20;;;;;;;3.30;1.33;;;14.20;99.90;;;;;;5052684;28;20051;-88
2022/11/08 10:46:49;;;;;;;7.60;1.30;;;14.20;99.90;;;;;;5036564;28;20055;-88
2022/11/08 10:49:37;;;;;;;7.65;1.08;;;14.30;99.90;;;;;;5051927;28;20050;-87
2022/11/08 10:52:19;;;;;;;6.72;1.20;;;14.20;99.90;;;;;;5052522;28;20047;-89
2022/11/08 10:54:45;;;;;;;7.25;1.85;;;14.20;99.90;;;;;;5069663;28;20060;-87
2022/11/08 10:57:31;;;;;;;7.03;1.33;;;14.10;99.90;;;;;;5087368;28;20400;-88
2022/11/08 11:00:18;;;;;;;8.77;1.17;;;14.10;99.90;;;;;;5088103;28;20052;-90
2022/11/08 11:02:54;;;;;;;9.80;1.10;;;14.00;99.90;;;;;;5069339;28;20086;-89
2022/11/08 11:05:27;;;;;;;3.13;1.23;;;14.00;99.90;;;;;;5069334;28;20044;-88
2022/11/08 11:08:07;;;;;;;4.72;1.45;;;14.00;99.90;;;;;;5053579;28;20465;-88
2022/11/08 11:10:35;;;;;;;3.63;1.10;;;14.00;99.90;;;;;;5052703;28;20092;-88
2022/11/08 11:13:01;;;;;;;4.75;0.88;;;14.00;99.90;;;;;;5069108;28;20439;-89
2022/11/08 11:15:42;;;;;;;4.85;1.48;;;14.00;99.90;;;;;;5069370;28;20074;-88
2022/11/08 11:18:34;;;;;;;4.63;1.10;;;14.10;99.90;;;;;;5069775;28;20056;-88
2022/11/08 11:21:09;;;;;;;7.25;1.20;;;14.10;99.90;;;;;;5052637;28;20048;-87
2022/11/08 11:23:42;;;;;;;9.15;1.70;;;14.20;99.90;;;;;;5068753;28;20039;-87
2022/11/08 11:26:18;;;;;;;8.05;1.52;;;14.20;99.90;;;;;;5069386;28;20423;-89
2022/11/08 11:29:05;;;;;;;5.47;1.05;;;14.30;99.90;;;;;;5068910;28;20084;-88
2022/11/08 11:31:36;;;;;;;4.57;1.08;;;14.30;99.90;;;;;;5068695;28;20495;-87
2022/11/08 11:34:17;;;;;;;2.75;1.13;;;14.30;99.90;;;;;;5068966;28;20510;-88
2022/11/08 11:36:58;;;;;;;5.63;0.95;;;14.30;99.90;;;;;;5052338;28;20044;-87
2022/11/08 11:39:44;;;;;;;4.00;1.27;;;14.40;99.90;;;;;;5051810;28;20100;-88
2022/11/08 11:42:28;;;;;;;10.85;1.13;;;14.50;99.90;;;;;;5068558;28;20051;-87
2022/11/08 11:45:13;;;;;;;3.80;0.98;;;14.60;99.90;;;;;;5068221;28;20087;-87
2022/11/08 11:47:54;;;;;;;8.55;1.15;;;14.70;99.90;;;;;;5086630;28;20048;-88
2022/11/08 11:50:30;;;;;;;5.57;0.95;;;14.70;99.90;;;;;;5068153;28;20048;-88
2022/11/08 11:52:58;;;;;;;5.38;1.02;;;14.70;99.90;;;;;;5068048;28;20048;-87
2022/11/08 11:55:54;;;;;;;5.95;1.17;;;14.70;99.90;;;;;;5051351;28;20127;-87
2022/11/08 11:58:30;;;;;;;6.90;0.90;;;14.70;99.90;;;;;;5067602;28;20047;-88
2022/11/08 12:01:14;;;;;;;5.05;1.08;;;14.70;99.90;;;;;;5068355;28;20437;-87
2022/11/08 12:04:07;;;;;;;4.72;1.10;;;14.80;99.90;;;;;;5068193;28;20090;-87
2022/11/08 12:07:33;;;;;;;2.78;0.82;;;14.80;99.90;;;;;;5068429;28;20044;-90
2022/11/08 12:10:13;;;;;;;6.88;1.27;;;14.80;99.90;;;;;;4971986;28;20042;-90
2022/11/08 12:13:11;;;;;;;2.75;0.90;;;14.90;99.90;;;;;;4988637;28;20128;-93
2022/11/08 12:15:58;;;;;;;4.82;1.35;;;15.00;99.90;;;;;;5052034;28;20110;-90
2022/11/08 12:18:52;;;;;;;7.22;1.13;;;15.00;99.90;;;;;;5052359;28;20363;-91
2022/11/08 12:21:33;;;;;;;4.13;1.00;;;15.00;99.90;;;;;;5053792;28;20074;-93
2022/11/08 12:24:26;;;;;;;7.88;1.15;;;15.10;99.90;;;;;;5053711;28;20078;-92
2022/11/08 12:27:31;;;;;;;1.25;0.43;;;15.20;99.90;;;;;;5058520;28;20074;-94
2022/11/08 12:30:13;;;;;;;4.47;1.15;;;15.10;99.90;;;;;;5005132;28;20109;-90
2022/11/08 12:32:53;;;;;;;4.85;1.05;;;15.20;99.90;;;;;;5074848;28;20062;-95
2022/11/08 12:35:49;;;;;;;4.95;1.00;;;15.20;99.90;;;;;;5055888;28;20047;-90
2022/11/08 12:38:33;;;;;;;4.47;1.10;;;15.10;99.90;;;;;;5053357;28;20502;-91
2022/11/08 12:41:10;;;;;;;4.60;0.90;;;15.20;99.90;;;;;;5086715;28;20099;-89
2022/11/08 12:43:45;;;;;;;3.17;0.93;;;15.20;99.90;;;;;;5067542;28;20426;-91
2022/11/08 12:46:16;;;;;;;3.65;0.85;;;15.20;99.90;;;;;;5050837;28;20040;-90
2022/11/08 12:48:48;;;;;;;3.80;0.98;;;15.10;99.90;;;;;;5067474;28;20066;-89
2022/11/08 12:51:37;;;;;;;2.47;0.95;;;15.00;99.90;;;;;;5067055;28;20499;-89
2022/11/08 12:54:12;;;;;;;3.95;1.10;;;15.00;99.90;;;;;;5050676;28;20055;-90
2022/11/08 12:56:43;;;;;;;2.13;1.10;;;15.00;99.90;;;;;;5067012;28;20475;-88
2022/11/08 12:59:41;;;;;;;4.88;1.25;;;15.00;99.90;;;;;;5066814;28;20099;-91
2022/11/08 13:02:19;;;;;;;3.10;0.90;;;15.00;99.90;;;;;;5059111;28;20125;-89
2022/11/08 13:05:03;;;;;;;3.35;1.05;;;15.00;99.90;;;;;;5067410;28;20780;-89
2022/11/08 13:07:35;;;;;;;4.53;1.13;;;15.10;99.90;;;;;;5067867;28;20083;-89
2022/11/08 13:10:48;;;;;;;4.80;1.45;;;15.10;99.90;;;;;;5086549;28;20139;-90
2022/11/08 13:13:37;;;;;;;4.20;1.10;;;15.00;99.90;;;;;;5049827;28;20055;-90
2022/11/08 13:16:27;;;;;;;3.17;0.77;;;15.00;99.90;;;;;;5066372;28;20044;-89
2022/11/08 13:18:58;;;;;;;3.20;1.20;;;15.00;99.90;;;;;;5056817;28;20055;-89
2022/11/08 13:21:27;;;;;;;2.83;1.00;;;15.10;99.90;;;;;;5050442;28;20460;-90